Time;durP1;ratioP1;P1;durP2;ratioP2;P2;SDS_P1;SDS_P2;PMS_P1;PMS_P2;Temp;Humidity;BMP_temperature;BMP_pressure;BME280_temperature;BME280_humidity;BME280_pressure;Samples;Min_cycle;Max_cycle;Signal;HPM_P1;HPM_P2
2022/01/26 00:00:56;;;;;;;47.47;32.97;;;3.20;99.90;;;;;;5013395;28;20209;-70
2022/01/26 00:06:16;;;;;;;49.53;33.58;;;3.20;99.90;;;;;;5013575;28;20317;-70
2022/01/26 00:08:44;;;;;;;42.75;32.50;;;3.80;99.90;;;;;;4996035;28;20308;-70
2022/01/26 00:11:12;;;;;;;40.58;29.95;;;4.10;99.90;;;;;;5007171;28;20504;-69
2022/01/26 00:13:40;;;;;;;30.90;25.30;;;4.30;99.90;;;;;;5006999;28;20721;-70
2022/01/26 00:16:18;;;;;;;33.20;25.00;;;3.80;99.90;;;;;;5007238;28;20300;-70
2022/01/26 00:18:46;;;;;;;33.15;23.67;;;3.60;99.90;;;;;;5009927;28;20205;-70
2022/01/26 00:21:24;;;;;;;33.05;26.15;;;3.90;99.90;;;;;;5015099;28;20229;-69
2022/01/26 00:24:09;;;;;;;32.42;23.30;;;4.10;99.90;;;;;;5013241;28;20725;-70
2022/01/26 00:27:00;;;;;;;33.28;26.00;;;3.90;99.90;;;;;;5012919;28;20327;-69
2022/01/26 00:29:29;;;;;;;28.85;23.58;;;4.00;99.90;;;;;;5013100;28;20617;-70
2022/01/26 00:40:28;;;;;;;34.97;24.77;;;3.50;99.90;;;;;;5013104;28;20729;-70
2022/01/26 00:43:01;;;;;;;31.10;23.15;;;3.60;99.90;;;;;;5012514;28;20271;-70
2022/01/26 00:45:34;;;;;;;30.98;24.02;;;3.50;99.90;;;;;;5012751;28;20669;-71
2022/01/26 00:48:08;;;;;;;27.40;22.92;;;3.80;99.90;;;;;;5012882;28;20545;-70
2022/01/26 00:50:38;;;;;;;24.08;20.55;;;3.80;99.90;;;;;;5009095;28;20201;-71
2022/01/26 00:53:08;;;;;;;28.48;22.70;;;3.90;99.90;;;;;;5006962;28;20209;-71
2022/01/26 00:55:35;;;;;;;29.35;24.20;;;4.10;99.90;;;;;;5012529;28;20203;-71
2022/01/26 00:58:04;;;;;;;29.65;24.05;;;4.00;99.90;;;;;;5012664;28;20212;-68
2022/01/26 01:00:32;;;;;;;25.42;21.80;;;3.90;99.90;;;;;;5012713;28;20209;-71
2022/01/26 01:03:01;;;;;;;30.20;23.75;;;4.00;99.90;;;;;;5011824;28;20214;-71
2022/01/26 01:05:35;;;;;;;25.20;19.67;;;4.10;99.90;;;;;;5012758;28;20197;-69
2022/01/26 01:08:08;;;;;;;27.33;21.83;;;4.10;99.90;;;;;;5012672;28;20205;-71
2022/01/26 01:10:36;;;;;;;25.92;20.23;;;4.10;99.90;;;;;;5012328;28;20213;-70
2022/01/26 01:13:07;;;;;;;24.02;20.58;;;4.20;99.90;;;;;;5012108;28;20572;-71
2022/01/26 01:15:35;;;;;;;30.13;21.58;;;3.80;99.90;;;;;;5012141;28;20224;-71
2022/01/26 01:18:10;;;;;;;28.40;21.77;;;3.50;99.90;;;;;;5012118;28;20220;-70
2022/01/26 01:23:47;;;;;;;32.80;22.02;;;3.70;99.90;;;;;;4979195;28;20239;-71
2022/01/26 01:26:42;;;;;;;28.52;20.15;;;4.00;99.90;;;;;;5018420;28;20236;-70
2022/01/26 01:29:18;;;;;;;24.75;19.52;;;3.90;99.90;;;;;;5006633;28;20209;-71
2022/01/26 01:31:49;;;;;;;25.30;19.65;;;3.90;99.90;;;;;;5012174;28;20197;-71
2022/01/26 01:34:18;;;;;;;26.63;21.33;;;3.60;99.90;;;;;;5011806;28;20600;-71
2022/01/26 01:36:50;;;;;;;24.10;18.67;;;3.90;99.90;;;;;;5011994;28;20239;-71
2022/01/26 01:39:19;;;;;;;24.25;20.10;;;3.80;99.90;;;;;;5011971;28;20200;-70
2022/01/26 01:41:48;;;;;;;25.50;21.13;;;3.90;99.90;;;;;;4994100;28;20228;-70
2022/01/26 01:44:17;;;;;;;24.88;18.92;;;4.00;99.90;;;;;;5011710;28;20225;-70
2022/01/26 01:46:45;;;;;;;25.27;18.70;;;3.90;99.90;;;;;;5011721;28;20233;-70
2022/01/26 01:49:15;;;;;;;21.95;18.23;;;3.90;99.90;;;;;;5011603;28;20668;-70
2022/01/26 01:51:48;;;;;;;25.10;19.92;;;3.90;99.90;;;;;;5011451;28;20201;-70
2022/01/26 01:54:19;;;;;;;25.55;19.30;;;3.80;99.90;;;;;;5011693;28;20216;-70
2022/01/26 01:56:51;;;;;;;24.30;19.15;;;3.50;99.90;;;;;;5011726;28;20238;-68
2022/01/26 01:59:19;;;;;;;26.02;19.65;;;3.60;99.90;;;;;;5011945;28;20304;-70
2022/01/26 02:01:47;;;;;;;24.95;19.60;;;3.50;99.90;;;;;;5011470;28;20213;-70
2022/01/26 02:04:15;;;;;;;25.10;20.38;;;3.70;99.90;;;;;;5011515;28;20221;-70
2022/01/26 02:06:43;;;;;;;22.02;19.50;;;3.90;99.90;;;;;;5011663;28;20251;-69
2022/01/26 02:09:12;;;;;;;24.73;19.48;;;4.00;99.90;;;;;;5011682;28;20260;-70
2022/01/26 02:11:51;;;;;;;21.92;17.30;;;4.10;99.90;;;;;;5011103;28;20296;-70
2022/01/26 02:14:24;;;;;;;19.38;16.38;;;4.00;99.90;;;;;;5011478;28;20648;-70
2022/01/26 02:17:01;;;;;;;22.65;17.30;;;4.10;99.90;;;;;;5011429;28;20633;-70
2022/01/26 02:52:59;;;;;;;28.73;21.73;;;3.80;99.90;;;;;;4983239;28;20245;-70
2022/01/26 02:55:41;;;;;;;30.65;22.80;;;3.90;99.90;;;;;;4995408;28;20244;-70
2022/01/26 03:01:03;;;;;;;32.30;23.48;;;3.00;99.90;;;;;;4982767;28;20316;-70
2022/01/26 03:03:36;;;;;;;30.45;24.90;;;3.10;99.90;;;;;;4994857;28;20229;-70
2022/01/26 03:06:08;;;;;;;36.97;24.65;;;3.20;99.90;;;;;;4995092;28;20603;-69
2022/01/26 03:08:41;;;;;;;37.38;25.73;;;2.70;99.90;;;;;;4995465;28;20305;-70
2022/01/26 03:11:12;;;;;;;31.98;25.05;;;2.60;99.90;;;;;;4995249;28;20756;-70
2022/01/26 03:13:45;;;;;;;39.13;27.80;;;2.40;99.90;;;;;;4994807;28;20288;-70
2022/01/26 03:16:18;;;;;;;29.77;25.42;;;2.60;99.90;;;;;;4994983;28;20257;-70
2022/01/26 03:19:02;;;;;;;33.30;25.35;;;2.30;99.90;;;;;;4988777;28;20671;-69
2022/01/26 03:21:37;;;;;;;35.33;27.15;;;2.10;99.90;;;;;;4994713;28;20659;-69
2022/01/26 03:29:55;;;;;;;31.90;25.55;;;2.60;99.90;;;;;;5014365;28;20774;-69
2022/01/26 03:32:59;;;;;;;41.08;29.23;;;2.60;99.90;;;;;;5013997;28;20280;-68
2022/01/26 03:35:40;;;;;;;30.05;25.65;;;2.60;99.90;;;;;;5014181;28;20255;-68
2022/01/26 03:38:16;;;;;;;33.13;25.88;;;2.60;99.90;;;;;;5018316;28;20255;-69
2022/01/26 03:40:44;;;;;;;30.15;23.48;;;2.60;99.90;;;;;;5015150;28;20235;-68
2022/01/26 03:43:13;;;;;;;31.13;25.00;;;2.60;99.90;;;;;;5013650;28;20221;-69
2022/01/26 03:45:41;;;;;;;31.95;24.83;;;2.40;99.90;;;;;;5013731;28;20722;-68
2022/01/26 03:48:09;;;;;;;33.17;27.85;;;2.20;99.90;;;;;;5014163;28;20304;-68
2022/01/26 03:50:36;;;;;;;33.90;27.63;;;2.20;99.90;;;;;;5013282;28;20598;-68
2022/01/26 03:53:04;;;;;;;36.88;27.63;;;2.10;99.90;;;;;;5012881;28;20204;-68
2022/01/26 03:55:32;;;;;;;35.95;27.83;;;2.00;99.90;;;;;;5013796;28;20293;-68
2022/01/26 03:58:00;;;;;;;34.42;28.15;;;2.30;99.90;;;;;;5013740;28;20241;-68
2022/01/26 04:00:29;;;;;;;30.20;25.05;;;2.30;99.90;;;;;;5013793;28;20216;-68
2022/01/26 04:02:57;;;;;;;33.88;27.20;;;2.10;99.90;;;;;;5013175;28;21128;-68
2022/01/26 04:05:27;;;;;;;30.33;26.60;;;2.40;99.90;;;;;;5013653;28;20561;-68
2022/01/26 04:08:01;;;;;;;32.53;24.88;;;2.60;99.90;;;;;;5007305;28;20223;-68
2022/01/26 04:10:40;;;;;;;28.40;25.38;;;3.00;99.90;;;;;;5013575;28;20220;-68
2022/01/26 04:13:08;;;;;;;25.10;21.13;;;3.30;99.90;;;;;;5013390;28;20252;-68
2022/01/26 04:15:38;;;;;;;26.23;21.38;;;3.70;99.90;;;;;;5013457;28;20662;-68
2022/01/26 04:18:09;;;;;;;31.23;20.05;;;3.90;99.90;;;;;;5013431;28;20212;-68
2022/01/26 04:20:42;;;;;;;37.78;18.83;;;4.10;99.90;;;;;;5010257;28;20220;-68
2022/01/26 04:23:15;;;;;;;26.15;20.10;;;4.00;99.90;;;;;;5012881;28;20839;-69
2022/01/26 04:25:45;;;;;;;21.85;18.80;;;3.30;99.90;;;;;;5013223;28;20292;-68
2022/01/26 04:28:18;;;;;;;25.67;20.08;;;3.50;99.90;;;;;;5013395;28;20287;-68
2022/01/26 04:30:48;;;;;;;23.80;19.65;;;3.30;99.90;;;;;;5013258;28;20261;-69
2022/01/26 04:33:16;;;;;;;28.17;20.88;;;2.80;99.90;;;;;;5012736;28;20205;-69
2022/01/26 04:35:46;;;;;;;28.10;22.80;;;2.40;99.90;;;;;;5012926;28;20288;-70
2022/01/26 04:38:20;;;;;;;30.08;24.05;;;2.30;99.90;;;;;;5013247;28;20284;-70
2022/01/26 04:40:59;;;;;;;31.50;25.83;;;2.00;99.90;;;;;;5007323;28;20287;-68
2022/01/26 04:43:32;;;;;;;32.25;25.02;;;1.80;99.90;;;;;;5018439;28;20227;-70
2022/01/26 04:46:01;;;;;;;35.78;28.00;;;1.70;99.90;;;;;;5050734;23;20232;-63
2022/01/26 04:48:29;;;;;;;34.90;26.85;;;1.90;99.90;;;;;;5031917;28;20683;-61
2022/01/26 04:50:57;;;;;;;32.47;25.55;;;1.90;99.90;;;;;;5032323;28;20292;-62
2022/01/26 04:53:25;;;;;;;33.15;25.10;;;1.90;99.90;;;;;;5031785;28;20717;-62
2022/01/26 04:55:53;;;;;;;33.85;25.30;;;2.20;99.90;;;;;;5032064;28;20227;-61
2022/01/26 04:58:20;;;;;;;27.77;22.83;;;2.10;99.90;;;;;;5032343;28;20674;-62
2022/01/26 05:00:48;;;;;;;35.50;26.92;;;2.30;99.90;;;;;;5032101;28;20212;-62
2022/01/26 05:03:18;;;;;;;24.90;19.95;;;2.80;99.90;;;;;;5031937;28;20205;-62
2022/01/26 05:05:46;;;;;;;26.25;22.13;;;2.80;99.90;;;;;;5031868;28;20228;-63
2022/01/26 05:08:14;;;;;;;27.88;20.88;;;3.20;99.90;;;;;;5032014;28;20232;-63
2022/01/26 05:10:44;;;;;;;28.30;22.85;;;3.20;99.90;;;;;;5032046;28;20308;-62
2022/01/26 05:13:14;;;;;;;25.40;18.95;;;3.00;99.90;;;;;;5031665;28;20621;-62
2022/01/26 05:15:42;;;;;;;25.08;21.33;;;3.00;99.90;;;;;;5032491;28;20252;-62
2022/01/26 05:18:11;;;;;;;26.63;20.85;;;2.80;99.90;;;;;;5033934;28;20279;-63
2022/01/26 05:20:40;;;;;;;27.17;22.10;;;2.40;99.90;;;;;;5029961;28;20288;-62
2022/01/26 05:23:09;;;;;;;27.00;21.08;;;2.50;99.90;;;;;;5031356;28;20235;-63
2022/01/26 05:25:37;;;;;;;30.40;23.30;;;2.40;99.90;;;;;;5031689;28;20740;-62
2022/01/26 05:28:05;;;;;;;33.60;25.58;;;2.30;99.90;;;;;;5031746;28;20200;-63
2022/01/26 05:30:33;;;;;;;33.22;25.60;;;2.00;99.90;;;;;;5031719;28;20682;-63
2022/01/26 05:33:01;;;;;;;28.52;23.95;;;2.00;99.90;;;;;;5031211;28;20320;-62
2022/01/26 05:35:29;;;;;;;30.50;25.08;;;2.10;99.90;;;;;;5031504;28;20216;-63
2022/01/26 05:37:59;;;;;;;28.30;22.60;;;1.80;99.90;;;;;;5031502;28;20240;-63
2022/01/26 05:40:27;;;;;;;37.20;27.83;;;1.90;99.90;;;;;;5031380;28;20208;-63
2022/01/26 05:42:55;;;;;;;33.90;26.02;;;1.90;99.90;;;;;;5031843;28;20291;-62
2022/01/26 05:45:28;;;;;;;32.97;25.63;;;1.80;99.90;;;;;;5031175;28;20240;-60
2022/01/26 05:47:56;;;;;;;37.45;26.25;;;1.60;99.90;;;;;;5022674;28;20304;-61
2022/01/26 05:50:24;;;;;;;38.85;26.80;;;1.50;99.90;;;;;;5030717;28;20279;-62
2022/01/26 05:52:52;;;;;;;35.47;28.45;;;1.40;99.90;;;;;;5024255;28;20880;-60
2022/01/26 05:55:21;;;;;;;40.03;29.17;;;1.40;99.90;;;;;;5019885;28;20244;-62
2022/01/26 05:57:49;;;;;;;34.38;27.73;;;1.50;99.90;;;;;;5018873;28;20281;-61
2022/01/26 06:00:17;;;;;;;33.83;27.63;;;1.50;99.90;;;;;;5025852;28;20774;-62
2022/01/26 06:02:45;;;;;;;33.50;26.85;;;1.60;99.90;;;;;;5025311;28;20299;-60
2022/01/26 06:05:13;;;;;;;38.97;28.48;;;1.60;99.90;;;;;;5025582;28;20216;-62
2022/01/26 06:07:41;;;;;;;31.85;28.17;;;1.60;99.90;;;;;;5025582;28;20197;-61
2022/01/26 06:10:09;;;;;;;28.42;25.27;;;1.60;99.90;;;;;;5025624;28;20677;-62
2022/01/26 06:12:38;;;;;;;33.88;28.00;;;1.70;99.90;;;;;;5025430;28;20285;-61
2022/01/26 06:15:07;;;;;;;29.50;25.15;;;1.80;99.90;;;;;;5025504;28;20323;-61
2022/01/26 06:17:34;;;;;;;28.27;25.40;;;1.80;99.90;;;;;;5023328;28;20228;-61
2022/01/26 06:20:03;;;;;;;26.52;23.70;;;1.80;99.90;;;;;;5025091;28;20216;-61
2022/01/26 06:22:31;;;;;;;29.40;24.08;;;1.90;99.90;;;;;;5025312;28;20262;-61
2022/01/26 06:25:02;;;;;;;26.38;23.70;;;1.90;99.90;;;;;;5024991;28;20847;-61
2022/01/26 06:27:30;;;;;;;26.13;22.70;;;2.00;99.90;;;;;;5025531;28;20243;-61
2022/01/26 06:29:59;;;;;;;24.30;21.70;;;2.00;99.90;;;;;;5025128;28;20729;-61
2022/01/26 06:32:28;;;;;;;25.85;22.63;;;2.00;99.90;;;;;;5025530;28;20303;-60
2022/01/26 06:34:56;;;;;;;22.60;20.33;;;2.10;99.90;;;;;;5025105;28;20354;-61
2022/01/26 06:37:24;;;;;;;22.40;20.20;;;2.20;99.90;;;;;;5025641;28;20677;-61
2022/01/26 06:39:52;;;;;;;23.92;21.42;;;2.30;99.90;;;;;;5025380;28;20288;-61
2022/01/26 06:42:25;;;;;;;23.75;21.25;;;2.30;99.90;;;;;;5025123;28;20636;-62
2022/01/26 06:45:06;;;;;;;21.17;19.17;;;2.30;99.90;;;;;;5018651;28;20319;-61
2022/01/26 06:47:52;;;;;;;20.77;18.63;;;2.40;99.90;;;;;;5025547;28;20201;-61
2022/01/26 06:50:20;;;;;;;23.30;20.90;;;2.50;99.90;;;;;;5026818;28;20280;-61
2022/01/26 06:52:47;;;;;;;21.02;18.85;;;2.60;99.90;;;;;;5025072;28;20813;-61
2022/01/26 06:55:16;;;;;;;17.95;16.13;;;2.50;99.90;;;;;;5030805;28;20303;-63
2022/01/26 06:57:45;;;;;;;16.65;14.98;;;2.50;99.90;;;;;;5025264;28;20699;-61
2022/01/26 07:00:14;;;;;;;17.33;15.43;;;2.50;99.90;;;;;;5025320;28;20645;-60
2022/01/26 07:02:43;;;;;;;16.23;14.48;;;2.50;99.90;;;;;;5024945;28;20640;-62
2022/01/26 07:05:13;;;;;;;16.98;15.35;;;2.50;99.90;;;;;;5025101;28;20252;-62
2022/01/26 07:07:42;;;;;;;17.00;15.30;;;2.60;99.90;;;;;;5027966;28;20223;-62
2022/01/26 07:10:11;;;;;;;17.63;15.25;;;2.60;99.90;;;;;;5025301;28;20200;-62
2022/01/26 07:12:39;;;;;;;18.83;16.85;;;2.60;99.90;;;;;;5028445;28;20306;-62
2022/01/26 07:23:27;;;;;;;18.10;16.15;;;2.60;99.90;;;;;;5028597;28;20290;-63
2022/01/26 07:25:55;;;;;;;19.23;17.25;;;2.60;99.90;;;;;;5028337;28;20323;-63
2022/01/26 07:28:23;;;;;;;19.70;16.90;;;2.70;99.90;;;;;;5028613;28;20294;-62
2022/01/26 07:30:51;;;;;;;18.30;16.40;;;2.80;99.90;;;;;;5028301;28;20287;-63
2022/01/26 07:33:20;;;;;;;15.90;14.40;;;2.80;99.90;;;;;;5032236;28;20233;-63
2022/01/26 07:35:48;;;;;;;17.88;15.98;;;2.80;99.90;;;;;;5033651;28;20644;-63
2022/01/26 07:38:16;;;;;;;16.90;15.18;;;2.80;99.90;;;;;;5033924;28;20240;-64
2022/01/26 07:40:44;;;;;;;16.58;14.88;;;2.80;99.90;;;;;;5033604;28;20723;-62
2022/01/26 07:43:12;;;;;;;16.15;13.40;;;2.90;99.90;;;;;;5032898;28;20287;-63
2022/01/26 07:45:41;;;;;;;13.35;12.10;;;3.00;99.90;;;;;;5032236;28;20240;-63
2022/01/26 07:48:09;;;;;;;12.43;11.30;;;3.00;99.90;;;;;;5033726;28;20208;-63
2022/01/26 07:50:38;;;;;;;11.50;10.43;;;3.00;99.90;;;;;;5031249;28;20631;-63
2022/01/26 07:53:12;;;;;;;12.70;11.40;;;2.90;99.90;;;;;;5031371;28;20303;-62
2022/01/26 07:55:40;;;;;;;10.80;9.80;;;2.90;99.90;;;;;;5033555;28;20694;-63
2022/01/26 07:58:09;;;;;;;9.85;8.95;;;2.70;99.90;;;;;;5033909;28;20287;-63
2022/01/26 08:00:38;;;;;;;9.50;8.68;;;2.60;99.90;;;;;;5033643;28;20223;-63
2022/01/26 08:03:06;;;;;;;10.88;9.98;;;2.70;99.90;;;;;;5032973;28;20209;-63
2022/01/26 08:05:34;;;;;;;8.80;8.00;;;2.70;99.90;;;;;;5033258;28;20270;-63
2022/01/26 08:08:04;;;;;;;8.13;7.40;;;2.70;99.90;;;;;;5033383;28;20244;-63
2022/01/26 08:10:32;;;;;;;8.38;6.90;;;2.80;99.90;;;;;;5032713;28;20235;-63
2022/01/26 08:13:00;;;;;;;8.23;7.43;;;2.70;99.90;;;;;;5033094;28;20299;-63
2022/01/26 08:15:28;;;;;;;8.63;7.93;;;2.60;99.90;;;;;;5033171;28;20307;-63
2022/01/26 08:17:57;;;;;;;6.93;6.32;;;2.60;99.90;;;;;;5033205;28;20292;-62
2022/01/26 08:20:25;;;;;;;7.53;6.82;;;2.70;99.90;;;;;;5030973;28;20207;-63
2022/01/26 08:22:55;;;;;;;7.53;6.65;;;2.70;99.90;;;;;;5032784;28;20205;-63
2022/01/26 08:25:26;;;;;;;6.78;6.22;;;2.70;99.90;;;;;;5033127;28;20709;-61
2022/01/26 08:27:59;;;;;;;7.80;7.10;;;2.80;99.90;;;;;;5033226;28;20657;-63
2022/01/26 08:30:28;;;;;;;6.80;6.30;;;2.80;99.90;;;;;;5033173;28;20304;-63
2022/01/26 08:32:56;;;;;;;7.28;6.68;;;2.80;99.90;;;;;;5026641;28;20205;-63
2022/01/26 08:35:24;;;;;;;7.93;7.20;;;2.90;99.90;;;;;;5032923;28;20256;-63
2022/01/26 08:37:52;;;;;;;7.70;7.10;;;2.90;99.90;;;;;;5032765;28;20627;-63
2022/01/26 08:40:20;;;;;;;8.45;7.75;;;2.90;99.90;;;;;;5032337;28;20638;-63
2022/01/26 08:42:49;;;;;;;9.00;8.25;;;2.90;99.90;;;;;;5032502;28;20295;-62
2022/01/26 08:45:22;;;;;;;9.95;9.13;;;2.90;99.90;;;;;;5032370;28;20232;-63
2022/01/26 08:47:50;;;;;;;10.65;9.65;;;2.80;99.90;;;;;;5032584;28;20258;-63
2022/01/26 08:50:18;;;;;;;8.73;7.80;;;2.80;99.90;;;;;;5032162;28;20292;-63
2022/01/26 08:52:47;;;;;;;9.63;8.82;;;2.70;99.90;;;;;;5031971;28;20239;-62
2022/01/26 08:55:15;;;;;;;8.90;8.20;;;2.70;99.90;;;;;;5032499;28;20220;-63
2022/01/26 08:57:43;;;;;;;8.25;7.53;;;2.80;99.90;;;;;;5032420;28;20228;-63
2022/01/26 09:00:13;;;;;;;8.63;7.93;;;2.90;99.90;;;;;;5032303;28;20239;-63
2022/01/26 09:02:41;;;;;;;8.60;7.90;;;2.90;99.90;;;;;;5032023;28;20197;-63
2022/01/26 09:05:10;;;;;;;10.73;9.68;;;3.00;99.90;;;;;;5032047;28;20233;-63
2022/01/26 09:07:40;;;;;;;9.68;8.88;;;3.10;99.90;;;;;;5032138;28;20212;-63
2022/01/26 09:10:08;;;;;;;10.10;9.10;;;3.10;99.90;;;;;;5031843;28;20307;-63
2022/01/26 09:12:40;;;;;;;10.07;9.13;;;3.00;99.90;;;;;;5031877;28;20212;-63
2022/01/26 09:15:10;;;;;;;10.55;9.65;;;3.00;99.90;;;;;;5031923;28;20256;-63
2022/01/26 09:17:42;;;;;;;12.57;10.18;;;3.00;99.90;;;;;;5031968;28;20239;-63
2022/01/26 09:20:11;;;;;;;10.55;9.30;;;3.00;99.90;;;;;;5031818;28;20616;-63
2022/01/26 09:22:39;;;;;;;10.77;9.68;;;3.00;99.90;;;;;;5031494;28;20224;-63
2022/01/26 09:25:08;;;;;;;11.15;10.05;;;3.10;99.90;;;;;;5031753;28;20700;-63
2022/01/26 09:27:36;;;;;;;11.32;10.13;;;3.10;99.90;;;;;;5031720;28;20260;-63
2022/01/26 09:30:06;;;;;;;11.25;10.15;;;3.00;99.90;;;;;;5031555;28;20204;-63
2022/01/26 09:32:36;;;;;;;11.20;9.45;;;3.00;99.90;;;;;;5031543;28;20219;-63
2022/01/26 09:35:07;;;;;;;12.45;11.35;;;3.00;99.90;;;;;;5031604;28;20255;-63
2022/01/26 09:37:35;;;;;;;11.77;10.68;;;3.00;99.90;;;;;;5031661;28;20196;-63
2022/01/26 09:40:04;;;;;;;12.55;11.48;;;3.00;99.90;;;;;;5031355;28;20226;-63
2022/01/26 09:42:34;;;;;;;11.93;10.85;;;3.10;99.90;;;;;;5031677;28;20208;-63
2022/01/26 09:45:02;;;;;;;12.68;11.43;;;3.00;99.90;;;;;;5031161;28;20769;-63
2022/01/26 09:47:31;;;;;;;11.82;10.82;;;3.10;99.90;;;;;;5025152;28;20224;-62
2022/01/26 09:50:20;;;;;;;13.55;12.23;;;3.20;99.90;;;;;;5028707;28;20224;-63
2022/01/26 09:52:48;;;;;;;13.25;12.02;;;3.20;99.90;;;;;;5031110;28;20239;-65
2022/01/26 09:55:16;;;;;;;12.50;11.40;;;3.20;99.90;;;;;;5031292;28;20225;-63
2022/01/26 09:57:44;;;;;;;12.18;11.00;;;3.30;99.90;;;;;;5031492;28;20613;-63
2022/01/26 10:00:13;;;;;;;12.23;11.00;;;3.30;99.90;;;;;;5030826;28;20204;-63
2022/01/26 10:02:43;;;;;;;12.93;11.63;;;3.40;99.90;;;;;;5031428;28;20238;-63
2022/01/26 10:05:17;;;;;;;13.52;12.20;;;3.40;99.90;;;;;;5031127;28;20255;-61
2022/01/26 10:08:02;;;;;;;12.85;11.25;;;3.40;99.90;;;;;;5030988;28;20701;-63
2022/01/26 10:16:09;;;;;;;14.07;12.75;;;3.40;99.90;;;;;;5031001;28;20302;-63
2022/01/26 10:18:38;;;;;;;14.38;12.98;;;3.30;99.90;;;;;;5024712;28;20208;-63
2022/01/26 10:21:09;;;;;;;14.63;13.15;;;3.40;99.90;;;;;;5024328;28;20286;-63
2022/01/26 10:23:40;;;;;;;12.30;11.20;;;3.40;99.90;;;;;;5027261;28;20250;-63
2022/01/26 10:26:11;;;;;;;13.63;12.32;;;3.40;99.90;;;;;;5030776;28;20709;-64
2022/01/26 10:28:48;;;;;;;15.63;14.23;;;3.40;99.90;;;;;;5031246;28;20300;-63
2022/01/26 10:31:17;;;;;;;16.30;14.68;;;3.40;99.90;;;;;;5030754;28;20251;-62
2022/01/26 10:34:07;;;;;;;15.50;14.05;;;3.50;99.90;;;;;;5030726;28;20207;-63
2022/01/26 10:36:37;;;;;;;16.08;14.48;;;3.50;99.90;;;;;;5030973;28;20647;-63
2022/01/26 10:39:09;;;;;;;16.35;14.65;;;3.30;99.90;;;;;;5030706;28;20209;-62
2022/01/26 10:41:38;;;;;;;15.38;13.93;;;3.00;99.90;;;;;;5024569;28;20287;-63
2022/01/26 10:44:06;;;;;;;16.40;14.90;;;3.00;99.90;;;;;;5027276;28;20283;-63
2022/01/26 10:46:39;;;;;;;16.38;14.88;;;2.70;99.90;;;;;;5057416;23;20279;-75
2022/01/26 10:49:16;;;;;;;15.38;14.00;;;2.60;99.90;;;;;;5031592;28;20208;-75
2022/01/26 10:51:59;;;;;;;16.02;14.43;;;2.50;99.90;;;;;;5038207;28;20661;-73
2022/01/26 10:54:37;;;;;;;14.35;12.95;;;2.60;99.90;;;;;;5040082;28;20334;-73
2022/01/26 10:57:06;;;;;;;15.10;13.65;;;2.60;99.90;;;;;;5021349;28;20231;-73
2022/01/26 10:59:36;;;;;;;15.05;13.75;;;2.70;99.90;;;;;;5023368;28;20201;-73
2022/01/26 11:02:05;;;;;;;13.88;12.57;;;2.70;99.90;;;;;;5026242;28;20217;-72
2022/01/26 11:04:34;;;;;;;14.75;13.45;;;2.80;99.90;;;;;;5027901;28;20669;-72
2022/01/26 11:07:04;;;;;;;15.35;13.90;;;2.90;99.90;;;;;;5030032;28;20205;-73
2022/01/26 11:09:36;;;;;;;15.13;13.73;;;2.90;99.90;;;;;;5030487;28;20198;-73
2022/01/26 11:12:07;;;;;;;13.25;12.05;;;2.90;99.90;;;;;;5021485;28;20235;-72
2022/01/26 11:14:41;;;;;;;13.30;11.90;;;2.90;99.90;;;;;;5020982;28;20292;-70
2022/01/26 11:17:10;;;;;;;14.52;13.10;;;3.00;99.90;;;;;;5019444;28;20247;-73
2022/01/26 11:19:47;;;;;;;14.60;13.20;;;3.00;99.90;;;;;;5015726;28;20204;-70
2022/01/26 11:22:17;;;;;;;14.27;12.52;;;3.00;99.90;;;;;;5014302;28;20197;-73
2022/01/26 11:24:54;;;;;;;18.80;15.35;;;3.00;99.90;;;;;;5014712;28;20278;-71
2022/01/26 11:27:33;;;;;;;18.20;15.68;;;3.10;99.90;;;;;;5014570;28;20224;-73
2022/01/26 11:30:05;;;;;;;20.98;17.25;;;3.20;99.90;;;;;;5014488;28;20236;-73
2022/01/26 11:32:37;;;;;;;20.30;17.95;;;3.30;99.90;;;;;;5014553;28;20685;-72
2022/01/26 11:35:07;;;;;;;18.50;16.17;;;3.30;99.90;;;;;;5014420;28;20312;-73
2022/01/26 11:37:40;;;;;;;20.48;18.30;;;3.20;99.90;;;;;;5014437;28;20202;-73
2022/01/26 11:46:07;;;;;;;21.35;18.27;;;3.30;99.90;;;;;;5013794;28;20340;-73
2022/01/26 11:48:35;;;;;;;18.88;16.88;;;3.30;99.90;;;;;;5014043;28;20252;-73
2022/01/26 11:51:05;;;;;;;19.27;17.23;;;3.40;99.90;;;;;;5013844;28;20247;-73
2022/01/26 11:53:33;;;;;;;17.75;15.90;;;3.50;99.90;;;;;;5013723;28;20279;-74
2022/01/26 11:56:10;;;;;;;19.38;15.70;;;3.50;99.90;;;;;;5012789;28;20738;-72
2022/01/26 11:58:42;;;;;;;17.80;15.90;;;3.40;99.90;;;;;;5007739;28;20585;-73
2022/01/26 12:01:16;;;;;;;19.80;15.25;;;3.40;99.90;;;;;;5008194;28;20198;-73
2022/01/26 12:03:56;;;;;;;22.02;17.20;;;3.30;99.90;;;;;;5013811;28;20201;-73
2022/01/26 12:06:28;;;;;;;17.40;15.45;;;3.40;99.90;;;;;;5013621;28;20325;-73
2022/01/26 12:08:59;;;;;;;19.48;17.38;;;3.40;99.90;;;;;;5013668;28;20320;-73
2022/01/26 12:11:29;;;;;;;16.88;15.18;;;3.40;99.90;;;;;;5013803;28;20243;-73
2022/01/26 12:13:59;;;;;;;18.25;15.70;;;3.40;99.90;;;;;;5013586;28;20213;-73
2022/01/26 12:16:35;;;;;;;19.63;17.10;;;3.40;99.90;;;;;;5013285;28;20230;-73
2022/01/26 12:19:22;;;;;;;20.60;17.20;;;3.40;99.90;;;;;;5013681;28;20284;-72
2022/01/26 12:33:41;;;;;;;20.20;16.83;;;3.50;99.90;;;;;;5013287;28;20204;-72
2022/01/26 12:36:21;;;;;;;20.52;16.98;;;3.50;99.90;;;;;;5012982;28;20773;-72
2022/01/26 12:38:58;;;;;;;23.13;18.50;;;3.40;99.90;;;;;;5007063;28;20645;-68
2022/01/26 12:41:32;;;;;;;20.73;17.02;;;3.50;99.90;;;;;;5012978;28;20228;-75
2022/01/26 12:44:08;;;;;;;18.88;16.67;;;3.40;99.90;;;;;;5013002;28;20602;-75
2022/01/26 12:46:37;;;;;;;18.85;16.77;;;3.30;99.90;;;;;;5012557;28;20287;-72
2022/01/26 12:49:08;;;;;;;20.25;17.98;;;3.40;99.90;;;;;;5013228;28;20584;-72
2022/01/26 12:51:42;;;;;;;20.40;18.20;;;3.40;99.90;;;;;;5012742;28;20616;-72
2022/01/26 12:54:11;;;;;;;23.80;18.77;;;3.30;99.90;;;;;;5012957;28;20304;-73
2022/01/26 12:56:39;;;;;;;22.95;18.60;;;3.40;99.90;;;;;;5015637;28;20268;-72
2022/01/26 12:59:10;;;;;;;22.77;19.00;;;3.30;99.90;;;;;;5013814;28;20197;-72
2022/01/26 13:01:39;;;;;;;23.00;19.25;;;3.40;99.90;;;;;;5012776;28;20209;-72
2022/01/26 13:04:09;;;;;;;23.02;19.52;;;3.40;99.90;;;;;;5012613;28;20292;-73
2022/01/26 13:06:40;;;;;;;22.00;19.10;;;3.40;99.90;;;;;;5012513;28;20623;-73
2022/01/26 13:09:16;;;;;;;23.30;20.15;;;3.50;99.90;;;;;;4988691;28;20311;-73
2022/01/26 13:11:46;;;;;;;27.20;23.52;;;3.50;99.90;;;;;;5012902;28;20300;-73
2022/01/26 13:14:23;;;;;;;29.60;26.10;;;3.50;99.90;;;;;;5012648;28;20280;-73
2022/01/26 13:17:05;;;;;;;28.38;25.38;;;3.50;99.90;;;;;;5012179;28;20225;-73
2022/01/26 13:19:45;;;;;;;28.50;23.70;;;3.40;99.90;;;;;;5012471;28;20235;-72
2022/01/26 13:25:07;;;;;;;26.98;23.50;;;3.30;99.90;;;;;;5005280;28;20319;-73
2022/01/26 13:27:53;;;;;;;28.40;23.15;;;3.30;99.90;;;;;;5012377;28;20868;-73
2022/01/26 13:30:43;;;;;;;30.20;24.05;;;3.20;99.90;;;;;;5012396;28;20266;-73
2022/01/26 13:36:07;;;;;;;26.30;23.10;;;3.20;99.90;;;;;;5012232;28;20252;-73
2022/01/26 13:38:47;;;;;;;25.05;20.58;;;3.20;99.90;;;;;;5012315;28;20292;-73
2022/01/26 13:41:30;;;;;;;22.95;20.10;;;3.20;99.90;;;;;;5006558;28;20704;-73
2022/01/26 13:44:29;;;;;;;25.77;20.95;;;3.20;99.90;;;;;;5011836;28;20197;-73
2022/01/26 13:47:21;;;;;;;24.20;19.98;;;3.10;99.90;;;;;;5011988;28;20512;-73
2022/01/26 13:50:04;;;;;;;19.95;17.55;;;3.10;99.90;;;;;;5011696;28;20271;-73
2022/01/26 13:52:43;;;;;;;22.08;18.98;;;3.00;99.90;;;;;;4994210;28;20216;-73
2022/01/26 13:55:28;;;;;;;22.73;18.33;;;3.10;99.90;;;;;;5006549;28;20314;-73
2022/01/26 14:01:01;;;;;;;21.25;19.05;;;3.00;99.90;;;;;;5011711;28;20228;-72
2022/01/26 14:03:33;;;;;;;24.55;19.55;;;3.10;99.90;;;;;;5011698;28;20205;-73
2022/01/26 14:06:01;;;;;;;23.10;19.15;;;3.20;99.90;;;;;;5011871;28;20228;-73
2022/01/26 14:08:29;;;;;;;21.85;18.17;;;3.30;99.90;;;;;;5012037;28;20701;-72
2022/01/26 14:10:57;;;;;;;20.95;17.52;;;3.30;99.90;;;;;;5011682;28;20737;-73
2022/01/26 14:13:26;;;;;;;18.05;16.15;;;3.40;99.90;;;;;;5011678;28;20232;-73
2022/01/26 14:15:57;;;;;;;23.20;19.23;;;3.50;99.90;;;;;;5011541;28;20233;-72
2022/01/26 14:18:44;;;;;;;22.45;18.67;;;3.50;99.90;;;;;;5010771;28;20546;-73
2022/01/26 14:21:28;;;;;;;21.33;18.23;;;3.50;99.90;;;;;;5009936;28;20197;-72
2022/01/26 14:24:10;;;;;;;21.33;18.50;;;3.50;99.90;;;;;;5010295;28;20209;-72
2022/01/26 14:26:42;;;;;;;21.33;18.10;;;3.40;99.90;;;;;;5011314;28;20309;-73
2022/01/26 14:29:19;;;;;;;23.92;17.17;;;3.40;99.90;;;;;;5011456;28;20313;-73
2022/01/26 14:32:09;;;;;;;23.08;18.98;;;3.30;99.90;;;;;;5012977;28;20236;-73
2022/01/26 14:35:04;;;;;;;21.45;19.10;;;3.30;99.90;;;;;;5011453;28;20263;-73
2022/01/26 14:40:44;;;;;;;22.45;19.17;;;3.70;99.90;;;;;;5011678;28;20284;-73